createdAt,value
2023-12-28T00:00:49.510Z,2.13
2023-12-28T00:06:59.818Z,2.10
2023-12-28T00:12:23.988Z,2.08
2023-12-28T00:18:17.817Z,2.00
2023-12-28T00:23:26.637Z,1.89
2023-12-28T00:28:55.716Z,1.80
2023-12-28T00:34:34.999Z,1.76
2023-12-28T00:39:51.770Z,1.79
2023-12-28T00:45:49.917Z,1.79
2023-12-28T00:51:36.926Z,1.76
2023-12-28T00:56:56.271Z,1.75
2023-12-28T01:02:30.952Z,1.77
2023-12-28T01:07:58.189Z,1.84
2023-12-28T01:13:29.598Z,1.84
2023-12-28T01:18:39.043Z,1.83
2023-12-28T01:23:58.800Z,1.79
2023-12-28T01:29:21.048Z,1.76
2023-12-28T01:34:24.850Z,1.74
2023-12-28T01:40:02.104Z,1.78
2023-12-28T01:45:43.444Z,1.74
2023-12-28T01:51:00.641Z,1.77
2023-12-28T01:56:04.768Z,1.76
2023-12-28T02:01:34.211Z,1.77
2023-12-28T02:07:01.750Z,1.80
2023-12-28T02:12:18.607Z,1.76
2023-12-28T02:17:54.862Z,1.74
2023-12-28T02:23:25.606Z,1.77
2023-12-28T02:28:49.173Z,1.79
2023-12-28T02:34:49.741Z,1.84
2023-12-28T02:40:17.793Z,1.91
2023-12-28T02:45:31.822Z,1.94
2023-12-28T02:51:18.405Z,2.01
2023-12-28T02:56:33.043Z,2.03
2023-12-28T03:01:56.886Z,2.07
2023-12-28T03:07:12.168Z,2.09
2023-12-28T03:13:02.866Z,2.09
2023-12-28T03:18:39.150Z,2.09
2023-12-28T03:23:54.011Z,2.08
2023-12-28T03:29:43.708Z,2.06
2023-12-28T03:35:30.926Z,2.05
2023-12-28T03:41:35.031Z,2.06
2023-12-28T03:47:30.322Z,2.03
2023-12-28T03:53:04.208Z,1.97
2023-12-28T03:58:40.849Z,1.93
2023-12-28T04:03:47.932Z,1.93
2023-12-28T04:09:38.590Z,1.93
2023-12-28T04:15:28.373Z,1.91
2023-12-28T04:21:10.104Z,1.89
2023-12-28T04:27:18.702Z,1.89
2023-12-28T04:32:49.756Z,1.84
2023-12-28T04:38:29.305Z,1.88
2023-12-28T04:44:37.439Z,1.90
2023-12-28T04:50:03.953Z,1.86
2023-12-28T04:55:46.041Z,1.87
2023-12-28T05:00:52.638Z,1.86
2023-12-28T05:06:02.240Z,1.82
2023-12-28T05:11:10.176Z,1.82
2023-12-28T05:16:35.705Z,1.83
2023-12-28T05:22:05.123Z,1.83
2023-12-28T05:27:29.998Z,1.83
2023-12-28T05:33:13.097Z,1.86
2023-12-28T05:38:21.951Z,1.85
2023-12-28T05:43:33.336Z,1.89
2023-12-28T05:48:54.902Z,1.88
2023-12-28T05:54:43.045Z,1.87
2023-12-28T06:00:11.274Z,1.89
2023-12-28T06:05:38.280Z,1.91
2023-12-28T06:10:44.834Z,1.92
2023-12-28T06:15:55.598Z,1.94
2023-12-28T06:21:19.649Z,1.94
2023-12-28T06:26:41.242Z,1.94
2023-12-28T06:32:28.757Z,1.96
2023-12-28T06:38:08.848Z,1.98
2023-12-28T06:44:08.745Z,1.99
2023-12-28T06:49:51.341Z,1.97
2023-12-28T06:55:13.847Z,1.99
2023-12-28T07:00:58.806Z,2.01
2023-12-28T07:06:29.596Z,2.05
2023-12-28T07:12:24.049Z,2.09
2023-12-28T07:17:46.050Z,2.14
2023-12-28T07:22:58.201Z,2.19
2023-12-28T07:28:15.900Z,2.29
2023-12-28T07:34:01.694Z,2.39
2023-12-28T07:39:16.502Z,2.48
2023-12-28T07:44:27.594Z,2.61
2023-12-28T07:50:16.232Z,2.74
2023-12-28T07:56:00.387Z,2.90
2023-12-28T08:01:44.698Z,3.10
2023-12-28T08:06:48.253Z,3.31
2023-12-28T08:12:04.722Z,3.49
2023-12-28T08:17:13.924Z,3.69
2023-12-28T08:22:37.534Z,3.87
2023-12-28T08:28:03.108Z,4.03
2023-12-28T08:33:42.577Z,4.20
2023-12-28T08:38:52.060Z,4.40
2023-12-28T08:43:55.566Z,4.51
2023-12-28T08:49:36.731Z,4.70
2023-12-28T08:55:13.745Z,4.91
2023-12-28T09:00:39.349Z,5.15
2023-12-28T09:05:48.748Z,5.43
2023-12-28T09:11:31.148Z,5.67
2023-12-28T09:16:38.002Z,5.89
2023-12-28T09:22:18.521Z,6.10
2023-12-28T09:27:24.832Z,6.28
2023-12-28T09:32:38.911Z,6.44
2023-12-28T09:37:44.677Z,6.58
2023-12-28T09:43:26.447Z,6.69
2023-12-28T09:48:33.985Z,6.74
2023-12-28T09:53:42.082Z,6.79
2023-12-28T09:58:50.505Z,6.88
2023-12-28T10:03:56.619Z,7.01
2023-12-28T10:09:00.912Z,7.09
2023-12-28T10:14:05.983Z,7.13
2023-12-28T10:19:13.110Z,7.19
2023-12-28T10:24:19.602Z,7.25
2023-12-28T10:29:49.355Z,7.30
2023-12-28T10:35:10.038Z,7.34
2023-12-28T10:40:45.635Z,7.39
2023-12-28T10:45:58.222Z,7.46
2023-12-28T10:51:07.799Z,7.53
2023-12-28T10:56:40.756Z,7.55
2023-12-28T11:01:51.358Z,7.52
2023-12-28T11:07:19.179Z,7.52
2023-12-28T11:12:29.507Z,7.52
2023-12-28T11:17:35.133Z,7.49
2023-12-28T11:23:02.324Z,7.47
2023-12-28T11:28:35.114Z,7.44
2023-12-28T11:34:06.193Z,7.44
2023-12-28T11:39:14.907Z,7.47
2023-12-28T11:44:43.257Z,7.46
2023-12-28T11:49:57.122Z,7.42
2023-12-28T11:55:32.328Z,7.42
2023-12-28T12:00:38.769Z,7.41
2023-12-28T12:05:45.997Z,7.42
2023-12-28T12:11:31.749Z,7.42
2023-12-28T12:16:50.319Z,7.42
2023-12-28T12:21:57.197Z,7.44
2023-12-28T12:27:14.408Z,7.46
2023-12-28T12:32:44.164Z,7.50
2023-12-28T12:38:37.256Z,7.54
2023-12-28T12:44:05.506Z,7.60
2023-12-28T12:50:04.615Z,7.65
2023-12-28T12:55:13.605Z,7.73
2023-12-28T13:00:46.620Z,7.79
2023-12-28T13:06:24.170Z,7.86
2023-12-28T13:11:58.153Z,7.94
2023-12-28T13:17:15.492Z,7.99
2023-12-28T13:22:51.903Z,8.03
2023-12-28T13:28:04.195Z,8.08
2023-12-28T13:33:10.680Z,8.12
2023-12-28T13:38:19.862Z,8.14
2023-12-28T13:44:04.230Z,8.18
2023-12-28T13:49:09.328Z,8.20
2023-12-28T13:54:59.295Z,8.22
2023-12-28T14:00:03.388Z,8.25
2023-12-28T14:05:58.775Z,8.25
2023-12-28T14:11:47.827Z,8.23
2023-12-28T14:16:57.081Z,8.22
2023-12-28T14:22:23.391Z,8.20
2023-12-28T14:27:33.139Z,8.21
2023-12-28T14:32:59.086Z,8.20
2023-12-28T14:38:09.257Z,8.19
2023-12-28T14:43:26.635Z,8.20
2023-12-28T14:48:33.039Z,8.23
2023-12-28T14:54:21.312Z,8.25
2023-12-28T14:59:27.579Z,8.24
2023-12-28T15:04:38.960Z,8.24
2023-12-28T15:10:00.013Z,8.24
2023-12-28T15:15:24.978Z,8.16
2023-12-28T15:21:07.856Z,8.04
2023-12-28T15:26:30.848Z,7.90
2023-12-28T15:32:02.490Z,7.75
2023-12-28T15:37:32.368Z,7.63
2023-12-28T15:43:20.557Z,7.60
2023-12-28T15:48:44.110Z,7.52
2023-12-28T15:54:09.345Z,7.48
2023-12-28T15:59:27.185Z,7.40
2023-12-28T16:04:35.665Z,7.33
2023-12-28T16:10:13.244Z,7.30
2023-12-28T16:16:03.287Z,7.23
2023-12-28T16:22:10.511Z,7.14
2023-12-28T16:28:09.253Z,7.01
2023-12-28T16:34:08.741Z,6.91
2023-12-28T16:40:33.173Z,6.76
2023-12-28T16:45:46.505Z,6.75
2023-12-28T16:51:01.568Z,6.73
2023-12-28T16:56:15.915Z,6.71
2023-12-28T17:01:26.132Z,6.65
2023-12-28T17:06:40.582Z,6.64
2023-12-28T17:12:10.780Z,6.59
2023-12-28T17:17:42.486Z,6.55
2023-12-28T17:22:51.234Z,6.51
2023-12-28T17:28:17.473Z,6.44
2023-12-28T17:33:33.075Z,6.41
2023-12-28T17:38:51.471Z,6.44
2023-12-28T17:44:50.586Z,6.44
2023-12-28T17:50:27.911Z,6.46
2023-12-28T17:55:44.381Z,6.48
2023-12-28T18:01:18.505Z,6.48
2023-12-28T18:06:58.063Z,6.50
2023-12-28T18:12:48.723Z,6.52
2023-12-28T18:18:37.679Z,6.53
2023-12-28T18:24:32.408Z,6.59
2023-12-28T18:29:54.607Z,6.65
2023-12-28T18:35:55.127Z,6.69
2023-12-28T18:41:04.704Z,6.72
2023-12-28T18:46:45.487Z,6.76
2023-12-28T18:52:11.918Z,6.83
2023-12-28T18:57:59.722Z,6.83
2023-12-28T19:03:05.228Z,6.89
2023-12-28T19:08:40.868Z,6.92
2023-12-28T19:14:44.957Z,6.94
2023-12-28T19:20:15.588Z,6.93
2023-12-28T19:25:43.649Z,6.96
2023-12-28T19:31:43.505Z,6.96
2023-12-28T19:37:41.855Z,6.97
2023-12-28T19:43:16.300Z,6.97
2023-12-28T19:49:10.669Z,6.98
2023-12-28T19:55:24.051Z,7.02
2023-12-28T20:01:13.908Z,7.01
2023-12-28T20:07:26.115Z,6.98
2023-12-28T20:12:42.247Z,7.00
2023-12-28T20:18:32.584Z,7.01
2023-12-28T20:24:33.547Z,6.99
2023-12-28T20:30:12.380Z,6.97
2023-12-28T20:35:52.245Z,6.95
2023-12-28T20:41:07.697Z,6.93
2023-12-28T20:46:14.392Z,6.94
2023-12-28T20:51:41.396Z,6.94
2023-12-28T20:57:31.273Z,6.93
2023-12-28T21:03:41.728Z,6.92
2023-12-28T21:09:43.439Z,6.91
2023-12-28T21:15:17.347Z,6.91
2023-12-28T21:21:12.751Z,6.92
2023-12-28T21:26:21.063Z,6.89
2023-12-28T21:31:34.673Z,6.86
2023-12-28T21:36:54.888Z,6.83
2023-12-28T21:42:23.131Z,6.80
2023-12-28T21:48:36.169Z,6.76
2023-12-28T21:54:19.050Z,6.70
2023-12-28T21:59:53.084Z,6.68
2023-12-28T22:06:10.601Z,6.67
2023-12-28T22:12:04.740Z,6.65
2023-12-28T22:17:44.737Z,6.62
2023-12-28T22:23:32.926Z,6.61
2023-12-28T22:29:08.480Z,6.59
2023-12-28T22:34:45.509Z,6.55
2023-12-28T22:40:47.768Z,6.53
2023-12-28T22:46:47.493Z,6.52
2023-12-28T22:52:20.263Z,6.49
2023-12-28T22:57:59.037Z,6.45
2023-12-28T23:03:53.434Z,6.45
2023-12-28T23:09:35.639Z,6.45
2023-12-28T23:15:40.537Z,6.45
2023-12-28T23:21:18.850Z,6.48
2023-12-28T23:27:15.597Z,6.47
2023-12-28T23:32:59.390Z,6.48
2023-12-28T23:38:46.256Z,6.49
2023-12-28T23:45:09.015Z,6.51
2023-12-28T23:51:12.061Z,6.50
2023-12-28T23:57:22.944Z,6.52
